Time;durP1;ratioP1;P1;durP2;ratioP2;P2;SDS_P1;SDS_P2;PMS_P1;PMS_P2;Temp;Humidity;BMP_temperature;BMP_pressure;BME280_temperature;BME280_humidity;BME280_pressure;Samples;Min_cycle;Max_cycle;Signal;HPM_P1;HPM_P2
2021/04/08 00:01:35;;;;;;;15.95;10.38;;;;;;;2.10;75.09;100048.21;1726270;82;21160;-75
2021/04/08 00:04:02;;;;;;;17.62;11.43;;;;;;;2.11;75.24;100048.55;1730612;82;21246;-75
2021/04/08 00:06:28;;;;;;;14.58;9.70;;;;;;;2.13;75.33;100047.95;1698546;83;21649;-75
2021/04/08 00:08:54;;;;;;;20.35;12.60;;;;;;;2.13;75.45;100050.59;1698433;84;21596;-75
2021/04/08 00:11:20;;;;;;;28.92;18.70;;;;;;;2.12;75.58;100052.85;1698204;84;21204;-75
2021/04/08 00:13:47;;;;;;;34.30;23.32;;;;;;;2.14;75.68;100058.84;1698576;84;21132;-75
2021/04/08 00:16:13;;;;;;;37.38;24.12;;;;;;;2.14;75.78;100052.27;1698473;84;21243;-75
2021/04/08 00:18:39;;;;;;;28.55;19.35;;;;;;;2.14;75.83;100052.27;1698410;84;21208;-76
2021/04/08 00:21:05;;;;;;;32.65;21.80;;;;;;;2.15;75.92;100053.08;1698417;83;21175;-75
2021/04/08 00:23:32;;;;;;;22.15;15.20;;;;;;;2.17;75.99;100062.53;1698448;84;21184;-75
2021/04/08 00:25:58;;;;;;;28.60;19.77;;;;;;;2.18;76.07;100053.66;1698458;84;21628;-75
2021/04/08 00:28:24;;;;;;;21.00;14.38;;;;;;;2.20;76.14;100057.02;1698232;84;22126;-75
2021/04/08 00:30:51;;;;;;;21.02;12.90;;;;;;;2.23;76.22;100059.39;1698497;83;21148;-75
2021/04/08 00:33:17;;;;;;;17.85;13.85;;;;;;;2.23;76.30;100059.87;1698475;83;21176;-75
2021/04/08 00:35:45;;;;;;;16.27;10.78;;;;;;;2.24;76.35;100066.81;1698584;84;21129;-76
2021/04/08 00:38:12;;;;;;;16.73;10.40;;;;;;;2.23;76.40;100067.28;1698421;84;21178;-75
2021/04/08 00:40:38;;;;;;;11.97;8.48;;;;;;;2.25;76.45;100067.98;1698514;84;21231;-75
2021/04/08 00:43:04;;;;;;;15.72;9.38;;;;;;;2.25;76.49;100070.61;1698360;84;21180;-75
2021/04/08 00:45:31;;;;;;;19.87;11.03;;;;;;;2.27;76.55;100077.92;1698598;84;21127;-75
2021/04/08 00:47:57;;;;;;;18.55;11.63;;;;;;;2.27;76.61;100077.92;1698343;83;21766;-75
2021/04/08 00:50:23;;;;;;;25.62;17.48;;;;;;;2.29;76.66;100080.41;1698486;84;21161;-75
2021/04/08 00:53:08;;;;;;;17.92;12.25;;;;;;;2.29;76.69;100086.98;1698560;84;21191;-75
2021/04/08 00:55:39;;;;;;;17.30;11.12;;;;;;;2.28;76.73;100083.55;1684132;84;21647;-75
2021/04/08 00:58:05;;;;;;;17.10;10.58;;;;;;;2.29;76.77;100079.93;1698539;84;21639;-75
2021/04/08 01:00:32;;;;;;;15.58;8.58;;;;;;;2.29;76.78;100081.24;1697987;84;21164;-75
2021/04/08 01:02:59;;;;;;;11.35;8.33;;;;;;;2.29;76.81;100079.93;1694921;84;21167;-75
2021/04/08 01:05:26;;;;;;;12.63;8.30;;;;;;;2.30;76.84;100089.50;1676863;84;21274;-75
2021/04/08 01:07:52;;;;;;;10.45;6.35;;;;;;;2.32;76.86;100091.52;1694766;83;21156;-75
2021/04/08 01:10:21;;;;;;;12.93;7.00;;;;;;;2.33;76.88;100085.77;1694993;84;21136;-75
2021/04/08 01:12:49;;;;;;;10.35;6.80;;;;;;;2.34;76.91;100093.56;1695018;84;21176;-75
2021/04/08 01:15:16;;;;;;;15.83;9.25;;;;;;;2.35;76.94;100097.87;1694842;84;21184;-75
2021/04/08 01:17:48;;;;;;;27.55;18.05;;;;;;;2.35;76.94;100100.50;1694744;84;21221;-75
2021/04/08 01:20:44;;;;;;;33.05;18.23;;;;;;;2.36;76.96;100106.09;1677758;84;21176;-75
2021/04/08 01:23:50;;;;;;;85.45;45.10;;;;;;;2.35;76.97;100111.02;1694991;84;21193;-75
2021/04/08 01:26:48;;;;;;;45.50;26.27;;;;;;;2.35;76.97;100108.39;1694623;84;21177;-75
2021/04/08 01:30:00;;;;;;;26.48;15.85;;;;;;;2.34;77.01;100114.61;1694737;84;21204;-75
2021/04/08 01:32:27;;;;;;;16.37;9.45;;;;;;;2.33;77.06;100112.92;1666786;86;21502;-75
2021/04/08 01:34:56;;;;;;;15.15;7.00;;;;;;;2.30;77.11;100115.81;1666922;86;21581;-75
2021/04/08 01:37:29;;;;;;;13.65;7.05;;;;;;;2.29;77.10;100125.13;1666895;86;21121;-75
2021/04/08 01:39:57;;;;;;;11.00;5.25;;;;;;;2.26;77.13;100123.59;1673477;84;21587;-76
2021/04/08 01:42:24;;;;;;;6.72;4.37;;;;;;;2.23;77.18;100121.21;1682568;84;21129;-76
2021/04/08 01:44:52;;;;;;;8.05;4.62;;;;;;;2.21;77.22;100138.92;1696633;83;21471;-75
2021/04/08 01:47:19;;;;;;;6.42;3.92;;;;;;;2.17;77.25;100135.34;1696686;84;21187;-75
2021/04/08 01:49:45;;;;;;;12.45;5.37;;;;;;;2.13;77.31;100145.27;1696717;84;21655;-75
2021/04/08 01:52:17;;;;;;;11.35;6.20;;;;;;;2.09;77.34;100149.09;1696578;84;21188;-75
2021/04/08 01:54:50;;;;;;;5.20;3.30;;;;;;;2.05;77.34;100154.24;1696829;84;21132;-75
2021/04/08 01:57:16;;;;;;;6.08;2.70;;;;;;;2.00;77.40;100166.46;1696745;84;21253;-75
2021/04/08 01:59:43;;;;;;;7.90;4.10;;;;;;;1.96;77.42;100170.76;1696453;83;21164;-75
2021/04/08 02:02:11;;;;;;;8.83;4.05;;;;;;;1.93;77.46;100168.38;1696636;84;21612;-75
2021/04/08 02:04:38;;;;;;;8.03;4.20;;;;;;;1.87;77.51;100174.94;1678381;84;21185;-75
2021/04/08 02:07:04;;;;;;;10.60;4.20;;;;;;;1.81;77.57;100163.59;1696720;84;21708;-75
2021/04/08 02:09:31;;;;;;;6.80;3.33;;;;;;;1.77;77.62;100183.66;1696477;84;22156;-75
2021/04/08 02:11:57;;;;;;;7.65;3.98;;;;;;;1.71;77.67;100177.58;1696345;84;21680;-75
2021/04/08 02:14:24;;;;;;;8.58;3.60;;;;;;;1.64;77.74;100186.89;1696774;83;21164;-75
2021/04/08 02:16:50;;;;;;;8.43;4.10;;;;;;;1.60;77.78;100190.70;1696646;84;21161;-75
2021/04/08 02:19:18;;;;;;;7.55;3.50;;;;;;;1.54;77.88;100199.06;1696714;83;21232;-75
2021/04/08 02:21:45;;;;;;;7.92;3.77;;;;;;;1.48;77.94;100192.00;1696333;84;21208;-75
2021/04/08 02:24:14;;;;;;;13.18;5.78;;;;;;;1.46;78.00;100199.17;1696733;84;21253;-75
2021/04/08 02:26:42;;;;;;;17.98;7.70;;;;;;;1.42;78.07;100206.92;1666042;84;21140;-75
2021/04/08 02:29:11;;;;;;;20.75;11.63;;;;;;;1.39;78.11;100207.16;1684408;84;21152;-75
2021/04/08 02:31:38;;;;;;;16.27;9.53;;;;;;;1.36;78.14;100217.06;1702358;83;21641;-75
2021/04/08 02:34:07;;;;;;;9.65;5.10;;;;;;;1.31;78.20;100212.15;1702025;84;21874;-75
2021/04/08 02:36:33;;;;;;;12.20;4.85;;;;;;;1.29;78.27;100215.38;1681471;84;21592;-75
2021/04/08 02:38:59;;;;;;;8.70;4.10;;;;;;;1.28;78.35;100228.14;1702222;83;21662;-75
2021/04/08 02:41:25;;;;;;;13.18;6.70;;;;;;;1.27;78.45;100231.71;1702211;83;21184;-75
2021/04/08 02:43:52;;;;;;;8.08;4.03;;;;;;;1.24;78.46;100225.86;1702200;84;21144;-75
2021/04/08 02:46:18;;;;;;;9.58;5.00;;;;;;;1.24;78.56;100230.64;1702191;83;21200;-75
2021/04/08 02:48:44;;;;;;;15.75;7.30;;;;;;;1.23;78.61;100230.27;1702212;84;21168;-75
2021/04/08 02:51:20;;;;;;;36.77;16.15;;;;;;;1.22;78.63;100238.28;1702405;82;21159;-75
2021/04/08 02:53:59;;;;;;;27.22;10.38;;;;;;;1.22;78.68;100238.28;1702374;84;21619;-75
2021/04/08 02:56:32;;;;;;;33.92;11.03;;;;;;;1.20;78.69;100241.00;1710929;83;21215;-76
2021/04/08 02:59:06;;;;;;;48.60;16.23;;;;;;;1.22;78.71;100239.12;1694693;84;21223;-75
2021/04/08 03:01:33;;;;;;;29.57;7.70;;;;;;;1.22;78.74;100245.69;1694738;84;21161;-76
2021/04/08 03:03:59;;;;;;;20.37;10.23;;;;;;;1.25;78.75;100250.70;1695101;84;21211;-75
2021/04/08 03:06:25;;;;;;;44.38;13.68;;;;;;;1.24;78.78;100247.70;1695031;84;21152;-75
2021/04/08 03:08:54;;;;;;;28.80;18.30;;;;;;;1.25;78.82;100251.17;1694975;84;21132;-75
2021/04/08 03:11:25;;;;;;;30.85;15.45;;;;;;;1.25;78.84;100257.27;1695079;84;21216;-75
2021/04/08 03:13:52;;;;;;;27.60;10.68;;;;;;;1.26;78.85;100258.95;1695089;84;21196;-75
2021/04/08 03:16:23;;;;;;;21.48;7.90;;;;;;;1.27;78.85;100268.48;1694790;84;21204;-75
2021/04/08 03:18:52;;;;;;;18.48;8.98;;;;;;;1.29;78.86;100267.08;1695011;84;21617;-75
2021/04/08 03:21:19;;;;;;;15.45;6.80;;;;;;;1.30;78.87;100265.62;1694809;84;21616;-75
2021/04/08 03:23:45;;;;;;;18.05;4.95;;;;;;;1.32;78.87;100272.94;1695007;84;22191;-75
2021/04/08 03:26:12;;;;;;;17.55;5.53;;;;;;;1.36;78.87;100279.64;1694889;83;21160;-75
2021/04/08 03:28:38;;;;;;;16.37;4.92;;;;;;;1.37;78.88;100276.03;1695237;84;21208;-75
2021/04/08 03:31:05;;;;;;;20.05;6.10;;;;;;;1.39;78.91;100283.34;1694894;83;21181;-75
2021/04/08 03:33:34;;;;;;;31.30;10.98;;;;;;;1.39;78.90;100280.72;1695205;84;21596;-75
2021/04/08 03:36:01;;;;;;;23.12;9.58;;;;;;;1.40;78.90;100278.46;1695114;83;21440;-75
2021/04/08 03:38:27;;;;;;;17.52;5.97;;;;;;;1.41;78.91;100278.80;1695233;84;21183;-75
2021/04/08 03:40:58;;;;;;;21.52;10.45;;;;;;;1.43;78.90;100282.17;1695077;84;21137;-75
2021/04/08 03:43:26;;;;;;;15.25;5.62;;;;;;;1.44;78.86;100286.45;1694543;83;21180;-75
2021/04/08 03:45:54;;;;;;;23.73;6.17;;;;;;;1.46;78.87;100287.19;1695103;84;21200;-75
2021/04/08 03:48:20;;;;;;;18.80;6.37;;;;;;;1.47;78.85;100294.13;1676959;83;21570;-75
2021/04/08 03:50:46;;;;;;;12.20;4.60;;;;;;;1.49;78.85;100306.66;1695110;83;21208;-75
2021/04/08 03:53:13;;;;;;;17.02;4.15;;;;;;;1.50;78.83;100305.72;1694956;84;21152;-75
2021/04/08 03:55:40;;;;;;;19.10;5.85;;;;;;;1.50;78.81;100309.66;1695066;84;21184;-75
2021/04/08 03:58:07;;;;;;;22.93;5.62;;;;;;;1.50;78.77;100320.17;1695170;84;21168;-75
2021/04/08 04:00:35;;;;;;;19.42;6.42;;;;;;;1.50;78.75;100320.17;1695039;84;21709;-75
2021/04/08 04:03:01;;;;;;;15.58;4.65;;;;;;;1.50;78.72;100319.33;1697618;83;21160;-75
2021/04/08 04:05:27;;;;;;;17.20;4.70;;;;;;;1.49;78.67;100318.96;1730746;82;21147;-75
2021/04/08 04:07:55;;;;;;;17.45;4.70;;;;;;;1.50;78.65;100319.33;1698371;84;21169;-75
2021/04/08 04:10:22;;;;;;;23.02;10.85;;;;;;;1.48;78.62;100326.00;1661607;84;21132;-75
2021/04/08 04:12:50;;;;;;;13.58;7.10;;;;;;;1.49;78.59;100319.80;1730995;82;22059;-75
2021/04/08 04:15:16;;;;;;;19.48;6.45;;;;;;;1.50;78.56;100325.42;1698361;84;21171;-75
2021/04/08 04:17:42;;;;;;;22.32;7.85;;;;;;;1.48;78.51;100320.74;1698413;83;21140;-75
2021/04/08 04:20:09;;;;;;;23.90;6.92;;;;;;;1.48;78.49;100321.21;1698530;83;21146;-76
2021/04/08 04:22:37;;;;;;;18.75;5.37;;;;;;;1.47;78.47;100329.60;1698417;83;21200;-75
2021/04/08 04:25:06;;;;;;;10.53;4.33;;;;;;;1.45;78.41;100324.92;1684359;84;22151;-75
2021/04/08 04:27:33;;;;;;;14.55;5.10;;;;;;;1.46;78.41;100323.13;1698282;83;21192;-75
2021/04/08 04:29:59;;;;;;;8.35;3.52;;;;;;;1.46;78.35;100337.11;1698613;84;21175;-75
2021/04/08 04:32:26;;;;;;;17.98;6.97;;;;;;;1.48;78.35;100340.45;1698368;83;21586;-75
2021/04/08 04:34:52;;;;;;;23.35;7.92;;;;;;;1.48;78.31;100343.08;1698599;84;21129;-75
2021/04/08 04:37:19;;;;;;;26.90;9.88;;;;;;;1.48;78.29;100343.08;1698498;84;21265;-75
2021/04/08 04:39:45;;;;;;;31.45;10.30;;;;;;;1.50;78.28;100353.02;1698304;84;21188;-75
2021/04/08 04:42:11;;;;;;;27.10;10.55;;;;;;;1.50;78.24;100350.86;1698503;84;21208;-75
2021/04/08 04:44:38;;;;;;;26.52;10.85;;;;;;;1.51;78.23;100353.36;1698266;84;21184;-75
2021/04/08 04:47:05;;;;;;;26.25;9.80;;;;;;;1.54;78.18;100359.36;1698544;84;21150;-75
2021/04/08 04:49:32;;;;;;;25.15;10.40;;;;;;;1.56;78.17;100352.19;1698427;84;22299;-75
2021/04/08 04:51:58;;;;;;;22.98;8.43;;;;;;;1.58;78.14;100363.44;1698526;84;21573;-75
2021/04/08 04:54:25;;;;;;;17.92;7.25;;;;;;;1.59;78.11;100360.67;1698531;84;21622;-75
2021/04/08 04:56:51;;;;;;;21.30;6.05;;;;;;;1.60;78.09;100365.45;1698528;84;21166;-75
2021/04/08 04:59:17;;;;;;;31.33;10.28;;;;;;;1.61;78.07;100370.62;1698499;84;21183;-75
2021/04/08 05:01:44;;;;;;;27.50;8.63;;;;;;;1.62;78.03;100366.20;1697653;84;21311;-75
2021/04/08 05:04:10;;;;;;;31.85;9.23;;;;;;;1.65;78.01;100372.55;1688688;85;21207;-75
2021/04/08 05:06:36;;;;;;;28.07;9.20;;;;;;;1.67;77.99;100371.94;1688567;85;21152;-75
2021/04/08 05:09:03;;;;;;;13.65;5.58;;;;;;;1.70;77.95;100370.39;1688899;85;21426;-75
2021/04/08 05:11:29;;;;;;;10.28;4.50;;;;;;;1.75;77.93;100370.91;1688800;85;21652;-76
2021/04/08 05:13:55;;;;;;;26.87;7.22;;;;;;;1.78;77.90;100381.19;1688837;85;21943;-76
2021/04/08 05:16:21;;;;;;;23.05;7.40;;;;;;;1.77;77.88;100378.19;1688583;85;21146;-76
2021/04/08 05:18:48;;;;;;;16.95;8.25;;;;;;;1.78;77.85;100382.02;1688624;85;21205;-75
2021/04/08 05:21:14;;;;;;;18.98;8.05;;;;;;;1.80;77.82;100379.27;1688737;85;21230;-76
2021/04/08 05:23:40;;;;;;;16.23;5.37;;;;;;;1.82;77.80;100380.00;1688655;85;21147;-76
2021/04/08 05:26:07;;;;;;;16.82;6.47;;;;;;;1.84;77.76;100385.50;1688656;84;21619;-76
2021/04/08 05:28:33;;;;;;;13.35;4.55;;;;;;;1.85;77.73;100387.66;1688692;85;21162;-76
2021/04/08 05:31:00;;;;;;;18.60;5.75;;;;;;;1.84;77.71;100395.17;1688618;85;21125;-76
2021/04/08 05:33:27;;;;;;;19.57;6.70;;;;;;;1.82;77.69;100401.04;1688762;85;21128;-76
2021/04/08 05:35:53;;;;;;;24.72;8.18;;;;;;;1.81;77.67;100401.98;1684892;85;21133;-76
2021/04/08 05:38:20;;;;;;;20.48;6.95;;;;;;;1.80;77.65;100402.45;1687791;85;21244;-76
2021/04/08 05:40:46;;;;;;;22.85;6.35;;;;;;;1.80;77.63;100403.77;1688575;85;21168;-76
2021/04/08 05:43:12;;;;;;;16.73;5.70;;;;;;;1.83;77.60;100415.87;1688785;85;21122;-76
2021/04/08 05:45:38;;;;;;;14.85;4.58;;;;;;;1.85;77.57;100409.53;1688477;85;21149;-77
2021/04/08 05:48:06;;;;;;;10.40;5.00;;;;;;;1.89;77.55;100420.66;1688759;85;21157;-76
2021/04/08 05:50:32;;;;;;;21.93;8.00;;;;;;;1.87;77.52;100417.29;1688704;85;21217;-76
2021/04/08 05:52:58;;;;;;;23.98;7.25;;;;;;;1.89;77.50;100427.23;1688519;85;21168;-77
2021/04/08 05:55:25;;;;;;;24.70;12.43;;;;;;;1.88;77.50;100426.86;1688657;85;21180;-76
2021/04/08 05:57:51;;;;;;;18.85;10.93;;;;;;;1.84;77.50;100414.89;1688677;85;21157;-77
2021/04/08 06:00:18;;;;;;;38.28;15.93;;;;;;;1.85;77.53;100416.58;1688675;85;21188;-76
2021/04/08 06:02:45;;;;;;;44.20;16.05;;;;;;;1.89;77.52;100433.80;1687736;84;22053;-77
2021/04/08 06:05:12;;;;;;;70.83;22.60;;;;;;;1.95;77.50;100436.81;1686227;83;21128;-76
2021/04/08 06:07:38;;;;;;;35.98;12.23;;;;;;;2.01;77.51;100448.66;1686330;85;21198;-77
2021/04/08 06:10:06;;;;;;;22.85;7.03;;;;;;;2.06;77.50;100449.16;1700120;83;21184;-76
2021/04/08 06:12:33;;;;;;;25.92;7.83;;;;;;;2.15;77.52;100454.19;1700083;83;21149;-76
2021/04/08 06:14:59;;;;;;;13.85;6.05;;;;;;;2.24;77.53;100460.09;1699958;84;21415;-77
2021/04/08 06:17:25;;;;;;;20.62;6.37;;;;;;;2.24;77.53;100471.47;1690177;84;21236;-76
2021/04/08 06:19:52;;;;;;;15.08;6.17;;;;;;;2.20;77.52;100472.64;1703138;84;21621;-76
2021/04/08 06:22:18;;;;;;;15.13;9.30;;;;;;;2.20;77.53;100471.80;1703078;84;21560;-77
2021/04/08 06:24:45;;;;;;;13.68;7.65;;;;;;;2.21;77.55;100482.22;1703224;84;21155;-77
2021/04/08 06:27:11;;;;;;;15.13;7.17;;;;;;;2.21;77.56;100486.64;1703276;84;21249;-76
2021/04/08 06:29:37;;;;;;;21.60;8.45;;;;;;;2.11;77.56;100490.41;1703248;84;21160;-75
2021/04/08 06:32:04;;;;;;;19.90;7.53;;;;;;;2.10;77.61;100494.48;1710500;83;21135;-74
2021/04/08 06:34:31;;;;;;;22.62;7.05;;;;;;;2.07;77.65;100498.19;1720601;83;21183;-75
2021/04/08 06:36:57;;;;;;;16.02;7.00;;;;;;;2.08;77.64;100497.22;1705482;83;21156;-74
2021/04/08 06:39:23;;;;;;;12.73;4.70;;;;;;;2.19;77.67;100501.20;1703288;83;21437;-77
2021/04/08 06:41:50;;;;;;;23.18;9.53;;;;;;;2.23;77.68;100501.35;1703234;84;21243;-74
2021/04/08 06:44:17;;;;;;;14.38;5.75;;;;;;;2.25;77.70;100499.42;1703232;84;21187;-74
2021/04/08 06:46:44;;;;;;;22.62;9.20;;;;;;;2.30;77.71;100505.67;1703422;84;21127;-75
2021/04/08 06:49:24;;;;;;;19.82;7.22;;;;;;;2.32;77.72;100504.59;1704573;83;21204;-77
2021/04/08 06:51:54;;;;;;;22.62;8.50;;;;;;;2.36;77.73;100511.31;1703510;84;21226;-77
2021/04/08 06:54:21;;;;;;;20.20;6.33;;;;;;;2.40;77.73;100514.08;1703105;84;21158;-75
2021/04/08 06:56:48;;;;;;;26.55;9.73;;;;;;;2.40;77.73;100514.08;1703220;84;21171;-75
2021/04/08 06:59:15;;;;;;;22.17;10.10;;;;;;;2.34;77.72;100522.44;1703240;84;21742;-75
2021/04/08 07:01:44;;;;;;;36.73;11.55;;;;;;;2.29;77.71;100523.25;1703251;84;21221;-75
2021/04/08 07:04:11;;;;;;;25.50;10.48;;;;;;;2.30;77.69;100523.62;1684640;83;21226;-75
2021/04/08 07:06:38;;;;;;;22.52;7.80;;;;;;;2.32;77.70;100526.15;1678952;84;21194;-74
2021/04/08 07:09:07;;;;;;;25.50;9.33;;;;;;;2.35;77.67;100530.70;1675548;84;22252;-75
2021/04/08 07:11:35;;;;;;;27.13;9.85;;;;;;;2.37;77.64;100527.47;1675920;85;21152;-75
2021/04/08 07:14:05;;;;;;;26.23;8.48;;;;;;;2.38;77.62;100537.05;1650264;85;21674;-75
2021/04/08 07:16:31;;;;;;;14.33;6.65;;;;;;;2.41;77.60;100538.13;1675690;84;21790;-75
2021/04/08 07:18:58;;;;;;;20.80;5.97;;;;;;;2.47;77.56;100534.19;1677986;84;21081;-75
2021/04/08 07:21:30;;;;;;;15.65;4.80;;;;;;;2.53;77.53;100546.91;1678379;84;21600;-75
2021/04/08 07:24:19;;;;;;;12.95;5.10;;;;;;;2.55;77.52;100548.09;1673395;84;21223;-75
2021/04/08 07:26:56;;;;;;;19.90;7.10;;;;;;;2.53;77.48;100536.86;1666151;84;21236;-75
2021/04/08 07:29:28;;;;;;;20.85;6.83;;;;;;;2.51;77.45;100554.91;1668304;84;22087;-75
2021/04/08 07:31:57;;;;;;;16.37;4.87;;;;;;;2.53;77.41;100559.57;1641352;84;21168;-74
2021/04/08 07:34:43;;;;;;;18.48;5.72;;;;;;;2.53;77.40;100566.15;1663034;84;21469;-74
2021/04/08 07:37:27;;;;;;;20.95;8.15;;;;;;;2.56;77.37;100574.31;1801897;77;22800;-76
2021/04/08 07:39:53;;;;;;;15.05;5.67;;;;;;;2.49;77.35;100573.94;1772090;80;21187;-76
2021/04/08 07:42:31;;;;;;;17.55;7.78;;;;;;;2.49;77.31;100575.73;1781951;80;21234;-75
2021/04/08 07:45:00;;;;;;;15.53;6.55;;;;;;;2.50;77.32;100591.39;1742919;81;21226;-75
2021/04/08 07:47:35;;;;;;;18.85;7.10;;;;;;;2.60;77.30;100590.72;1726684;81;21597;-76
2021/04/08 07:50:16;;;;;;;9.23;4.08;;;;;;;2.72;77.30;100587.16;1716892;81;21220;-76
2021/04/08 07:52:46;;;;;;;12.13;3.67;;;;;;;2.88;77.29;100599.55;1719034;82;21164;-75
2021/04/08 07:55:31;;;;;;;14.58;5.12;;;;;;;2.90;77.21;100601.57;1723193;82;22147;-76
2021/04/08 07:58:12;;;;;;;9.05;4.20;;;;;;;2.96;77.21;100614.27;1730858;82;21766;-76
2021/04/08 08:00:43;;;;;;;18.12;5.55;;;;;;;2.96;77.14;100612.95;1726485;82;21523;-76
2021/04/08 08:06:04;;;;;;;17.25;5.67;;;;;;;3.05;77.08;100616.22;1794495;77;22810;-77
2021/04/08 08:08:45;;;;;;;13.20;5.45;;;;;;;3.03;77.03;100628.66;1783951;80;21187;-76
2021/04/08 08:11:16;;;;;;;15.80;6.15;;;;;;;2.96;76.99;100628.75;1777717;80;21154;-76
2021/04/08 08:13:53;;;;;;;17.98;8.13;;;;;;;2.86;76.92;100636.99;1779319;80;21233;-75
2021/04/08 08:16:22;;;;;;;19.80;8.35;;;;;;;2.79;76.90;100643.67;1782689;80;21138;-75
2021/04/08 08:18:49;;;;;;;20.00;5.58;;;;;;;2.75;76.87;100649.64;1785001;80;21148;-75
2021/04/08 08:21:18;;;;;;;14.15;5.10;;;;;;;2.69;76.84;100651.89;1753421;80;21096;-75
2021/04/08 08:23:48;;;;;;;13.50;5.28;;;;;;;2.68;76.83;100659.42;1744626;80;21202;-77
2021/04/08 08:26:33;;;;;;;16.00;5.90;;;;;;;2.73;76.82;100662.56;1747035;81;21219;-76
2021/04/08 08:29:08;;;;;;;12.28;4.05;;;;;;;2.70;76.79;100664.11;1741991;81;21166;-76
2021/04/08 08:31:50;;;;;;;11.93;4.62;;;;;;;2.66;76.80;100671.88;1738631;81;21599;-76
2021/04/08 08:34:38;;;;;;;13.40;6.87;;;;;;;2.64;76.80;100684.32;1748180;81;21184;-76
2021/04/08 08:37:08;;;;;;;13.98;7.75;;;;;;;2.62;76.80;100684.89;1744211;81;21597;-76
2021/04/08 08:39:42;;;;;;;13.75;6.75;;;;;;;2.63;76.79;100689.21;1741730;80;21240;-76
2021/04/08 08:42:11;;;;;;;16.40;5.78;;;;;;;2.65;76.81;100697.35;1745003;81;21184;-76
2021/04/08 08:44:38;;;;;;;17.00;9.05;;;;;;;2.75;76.83;100694.87;1749870;81;21136;-76
2021/04/08 08:47:21;;;;;;;14.50;6.60;;;;;;;2.88;76.83;100695.67;1748409;81;21127;-76
2021/04/08 08:50:11;;;;;;;17.52;7.80;;;;;;;2.98;76.81;100697.98;1748863;81;21252;-76
2021/04/08 08:52:40;;;;;;;15.00;5.42;;;;;;;3.08;76.80;100705.56;1744415;81;21201;-76
2021/04/08 08:55:12;;;;;;;19.27;11.18;;;;;;;3.07;76.79;100702.55;1738579;81;21578;-76
2021/04/08 08:57:40;;;;;;;22.05;11.43;;;;;;;3.02;76.77;100709.98;1735074;81;21986;-76
2021/04/08 09:00:08;;;;;;;16.82;8.08;;;;;;;2.93;76.76;100714.59;1699538;82;21199;-76
2021/04/08 09:02:35;;;;;;;21.85;7.85;;;;;;;2.89;76.76;100723.20;1725964;81;22087;-76
2021/04/08 09:05:01;;;;;;;20.97;9.75;;;;;;;2.88;76.74;100733.86;1749769;81;21210;-76
2021/04/08 09:07:27;;;;;;;21.00;7.75;;;;;;;2.91;76.73;100739.75;1742506;81;21179;-76
2021/04/08 09:10:01;;;;;;;16.90;6.37;;;;;;;2.93;76.71;100733.03;1739093;81;22436;-76
2021/04/08 09:12:26;;;;;;;20.43;8.80;;;;;;;2.93;76.71;100734.34;1748371;81;21134;-76
2021/04/08 09:14:55;;;;;;;17.92;6.80;;;;;;;2.89;76.72;100745.59;1717335;82;21220;-76
2021/04/08 09:17:47;;;;;;;13.65;6.70;;;;;;;2.83;76.70;100748.67;1759903;81;21178;-75
2021/04/08 09:20:17;;;;;;;31.27;13.62;;;;;;;2.81;76.71;100752.38;1748922;80;21603;-77
2021/04/08 09:22:57;;;;;;;18.52;8.00;;;;;;;2.78;76.71;100753.93;1735189;80;21210;-76
2021/04/08 09:25:31;;;;;;;15.05;7.17;;;;;;;2.72;76.73;100754.34;1760557;80;21178;-76
2021/04/08 09:28:07;;;;;;;17.35;8.43;;;;;;;2.69;76.74;100765.11;1729034;82;22152;-76
2021/04/08 09:33:48;;;;;;;25.12;8.73;;;;;;;2.74;76.78;100765.16;1813417;77;22800;-75
2021/04/08 09:36:27;;;;;;;23.27;8.28;;;;;;;2.72;76.79;100771.47;1779538;80;21707;-75
2021/04/08 09:39:05;;;;;;;34.23;13.93;;;;;;;2.73;76.79;100764.78;1756211;81;21536;-75
2021/04/08 09:41:56;;;;;;;23.25;7.58;;;;;;;2.72;76.79;100784.16;1755381;81;21235;-75
2021/04/08 09:44:22;;;;;;;17.57;7.62;;;;;;;2.80;76.80;100784.93;1772403;80;21174;-74
2021/04/08 09:46:58;;;;;;;15.63;5.97;;;;;;;2.89;76.78;100784.25;1773324;80;21203;-74
2021/04/08 09:49:44;;;;;;;19.55;7.42;;;;;;;3.00;76.76;100790.89;1782319;80;21168;-74
2021/04/08 09:52:11;;;;;;;24.00;8.58;;;;;;;3.08;76.73;100793.82;1780693;80;21240;-75
2021/04/08 09:54:56;;;;;;;21.57;8.73;;;;;;;3.34;76.72;100784.00;1770354;78;21179;-74
2021/04/08 09:57:38;;;;;;;15.30;6.05;;;;;;;3.55;76.64;100789.45;1755733;80;21155;-76
2021/04/08 10:00:12;;;;;;;17.52;7.10;;;;;;;3.67;76.53;100791.14;1758988;80;21123;-76
2021/04/08 10:02:41;;;;;;;12.30;5.25;;;;;;;3.82;76.43;100791.31;1706066;83;21223;-75
2021/04/08 10:05:10;;;;;;;14.33;5.90;;;;;;;3.93;76.27;100790.02;1714914;82;21293;-75
2021/04/08 10:07:55;;;;;;;18.37;5.12;;;;;;;4.13;76.14;100795.05;1738917;81;21158;-75
2021/04/08 10:10:25;;;;;;;16.77;5.33;;;;;;;4.22;76.01;100785.94;1728699;82;21202;-75
2021/04/08 10:12:52;;;;;;;25.08;10.68;;;;;;;4.39;75.86;100792.55;1724545;82;21150;-76
2021/04/08 10:15:24;;;;;;;32.78;11.63;;;;;;;4.37;75.67;100799.27;1719675;82;21192;-75
2021/04/08 10:17:50;;;;;;;22.75;5.92;;;;;;;4.45;75.56;100814.50;1713725;81;21220;-75
2021/04/08 10:20:16;;;;;;;14.58;5.33;;;;;;;4.49;75.43;100806.23;1680246;84;21204;-75
2021/04/08 10:22:44;;;;;;;18.92;5.40;;;;;;;4.49;75.25;100806.23;1697500;84;21490;-76
2021/04/08 10:25:12;;;;;;;14.40;5.12;;;;;;;4.67;75.14;100809.69;1688413;82;21605;-75
2021/04/08 10:27:38;;;;;;;19.07;6.20;;;;;;;4.83;74.94;100812.30;1673518;85;21663;-76
2021/04/08 10:30:17;;;;;;;15.10;6.03;;;;;;;4.80;74.74;100811.70;1688106;84;22843;-75
2021/04/08 10:32:43;;;;;;;20.27;6.95;;;;;;;4.97;74.64;100814.67;1665298;85;21278;-75
2021/04/08 10:35:27;;;;;;;18.67;6.08;;;;;;;5.09;74.49;100823.42;1684065;84;21208;-76
2021/04/08 10:38:01;;;;;;;18.30;7.05;;;;;;;5.08;74.30;100823.05;1680760;84;21564;-76
2021/04/08 10:40:28;;;;;;;23.65;7.75;;;;;;;5.07;74.04;100833.26;1697643;83;21206;-75
2021/04/08 10:43:12;;;;;;;24.77;9.55;;;;;;;4.97;73.78;100827.04;1697721;83;21211;-75
2021/04/08 10:45:52;;;;;;;19.42;6.40;;;;;;;5.04;73.60;100830.87;1685616;84;21215;-75
2021/04/08 10:48:33;;;;;;;19.67;6.00;;;;;;;5.33;73.36;100818.77;1808492;78;22827;-74
2021/04/08 10:51:00;;;;;;;12.20;4.28;;;;;;;5.56;73.17;100835.88;1743802;81;21666;-74
2021/04/08 10:53:26;;;;;;;16.20;5.47;;;;;;;5.87;72.85;100844.29;1707824;79;21205;-76
2021/04/08 10:55:54;;;;;;;35.48;9.78;;;;;;;5.78;72.59;100842.36;1772568;78;21650;-76
2021/04/08 10:58:26;;;;;;;16.07;6.45;;;;;;;5.62;72.44;100856.05;1782322;78;21183;-76
2021/04/08 11:00:57;;;;;;;23.57;8.88;;;;;;;5.37;72.22;100859.87;1795220;79;22294;-76
2021/04/08 11:03:23;;;;;;;18.07;5.97;;;;;;;5.02;72.00;100868.48;1780773;79;21155;-75
2021/04/08 11:05:50;;;;;;;11.35;4.15;;;;;;;4.76;71.85;100872.34;1770833;79;21223;-76
2021/04/08 11:08:16;;;;;;;26.62;8.53;;;;;;;4.58;71.71;100871.15;1795490;79;21171;-76
2021/04/08 11:10:43;;;;;;;11.28;5.33;;;;;;;4.53;71.61;100863.13;1787223;79;21166;-75
2021/04/08 11:13:11;;;;;;;17.65;5.60;;;;;;;4.57;71.48;100861.56;1764638;81;21142;-75
2021/04/08 11:15:39;;;;;;;20.25;6.90;;;;;;;4.61;71.28;100874.90;1786318;78;21639;-76
2021/04/08 11:18:12;;;;;;;15.72;6.40;;;;;;;4.73;71.20;100869.95;1775905;80;21183;-76
2021/04/08 11:20:48;;;;;;;12.53;5.72;;;;;;;4.85;71.12;100872.96;1788185;80;21621;-76
2021/04/08 11:23:23;;;;;;;33.78;10.00;;;;;;;4.85;70.98;100868.52;1738483;82;21174;-76
2021/04/08 11:26:04;;;;;;;20.85;6.33;;;;;;;4.85;70.85;100881.73;1772745;80;21223;-76
2021/04/08 11:28:31;;;;;;;60.52;15.23;;;;;;;4.97;70.77;100874.61;1743476;80;21214;-76
2021/04/08 11:30:57;;;;;;;34.65;10.25;;;;;;;5.06;70.69;100888.43;1748689;81;21244;-76
2021/04/08 11:33:24;;;;;;;28.95;11.83;;;;;;;5.12;70.53;100889.25;1739392;81;21147;-75
2021/04/08 11:35:51;;;;;;;16.37;6.70;;;;;;;5.12;70.44;100889.25;1747887;81;21203;-76
2021/04/08 11:38:23;;;;;;;37.73;11.38;;;;;;;5.10;70.28;100892.52;1734000;81;21645;-75
2021/04/08 11:41:03;;;;;;;26.68;8.05;;;;;;;5.09;70.16;100896.11;1744247;81;21142;-76
2021/04/08 11:43:32;;;;;;;21.75;6.53;;;;;;;5.10;70.02;100896.95;1743463;81;22150;-76